sensor_id;sensor_type;location;lat;lon;timestamp;temperature;humidity
22852;DHT22;11592;45.460;9.240;2023-05-23T00:01:05;20.60;99.90
22852;DHT22;11592;45.460;9.240;2023-05-23T00:03:35;20.50;99.90
22852;DHT22;11592;45.460;9.240;2023-05-23T00:06:05;20.50;99.90
22852;DHT22;11592;45.460;9.240;2023-05-23T00:08:32;20.50;99.90
22852;DHT22;11592;45.460;9.240;2023-05-23T00:10:59;20.50;99.90
22852;DHT22;11592;45.460;9.240;2023-05-23T00:13:26;20.50;99.90
22852;DHT22;11592;45.460;9.240;2023-05-23T00:15:52;20.40;99.90
22852;DHT22;11592;45.460;9.240;2023-05-23T00:18:19;20.30;99.90
22852;DHT22;11592;45.460;9.240;2023-05-23T00:20:46;20.20;99.90
22852;DHT22;11592;45.460;9.240;2023-05-23T00:23:13;20.10;99.90
22852;DHT22;11592;45.460;9.240;2023-05-23T00:25:45;20.10;99.90
22852;DHT22;11592;45.460;9.240;2023-05-23T00:28:18;20.20;99.90
22852;DHT22;11592;45.460;9.240;2023-05-23T00:30:45;20.10;99.90
22852;DHT22;11592;45.460;9.240;2023-05-23T00:33:12;20.00;99.90
22852;DHT22;11592;45.460;9.240;2023-05-23T00:35:41;20.00;99.90
22852;DHT22;11592;45.460;9.240;2023-05-23T00:38:08;20.10;99.90
22852;DHT22;11592;45.460;9.240;2023-05-23T00:40:37;19.90;99.90
22852;DHT22;11592;45.460;9.240;2023-05-23T00:43:04;19.90;99.90
22852;DHT22;11592;45.460;9.240;2023-05-23T00:45:31;19.90;99.90
22852;DHT22;11592;45.460;9.240;2023-05-23T00:47:58;19.80;99.90
22852;DHT22;11592;45.460;9.240;2023-05-23T00:50:26;19.90;99.90
22852;DHT22;11592;45.460;9.240;2023-05-23T00:52:59;19.90;99.90
22852;DHT22;11592;45.460;9.240;2023-05-23T00:55:27;19.90;99.90
22852;DHT22;11592;45.460;9.240;2023-05-23T00:57:54;19.90;99.90
22852;DHT22;11592;45.460;9.240;2023-05-23T01:00:23;19.80;99.90
22852;DHT22;11592;45.460;9.240;2023-05-23T01:02:51;19.70;99.90
22852;DHT22;11592;45.460;9.240;2023-05-23T01:05:20;19.60;99.90
22852;DHT22;11592;45.460;9.240;2023-05-23T01:07:51;19.60;99.90
22852;DHT22;11592;45.460;9.240;2023-05-23T01:10:23;19.60;99.90
22852;DHT22;11592;45.460;9.240;2023-05-23T01:18:39;19.70;99.90
22852;DHT22;11592;45.460;9.240;2023-05-23T01:21:14;19.70;99.90
22852;DHT22;11592;45.460;9.240;2023-05-23T01:24:03;19.60;99.90
22852;DHT22;11592;45.460;9.240;2023-05-23T01:26:56;19.70;99.90
22852;DHT22;11592;45.460;9.240;2023-05-23T01:29:34;19.60;99.90
22852;DHT22;11592;45.460;9.240;2023-05-23T01:32:06;19.60;99.90
22852;DHT22;11592;45.460;9.240;2023-05-23T01:34:34;19.60;99.90
22852;DHT22;11592;45.460;9.240;2023-05-23T01:37:07;19.60;99.90
22852;DHT22;11592;45.460;9.240;2023-05-23T01:39:36;19.60;99.90
22852;DHT22;11592;45.460;9.240;2023-05-23T01:42:03;19.60;99.90
22852;DHT22;11592;45.460;9.240;2023-05-23T01:44:32;19.60;99.90
22852;DHT22;11592;45.460;9.240;2023-05-23T01:47:02;19.70;99.90
22852;DHT22;11592;45.460;9.240;2023-05-23T01:49:30;19.60;99.90
22852;DHT22;11592;45.460;9.240;2023-05-23T01:51:59;19.60;99.90
22852;DHT22;11592;45.460;9.240;2023-05-23T01:54:28;19.50;99.90
22852;DHT22;11592;45.460;9.240;2023-05-23T01:56:59;19.50;99.90
22852;DHT22;11592;45.460;9.240;2023-05-23T01:59:26;19.50;99.90
22852;DHT22;11592;45.460;9.240;2023-05-23T02:01:53;19.40;99.90
22852;DHT22;11592;45.460;9.240;2023-05-23T02:04:20;19.30;99.90
22852;DHT22;11592;45.460;9.240;2023-05-23T02:06:47;19.40;99.90
22852;DHT22;11592;45.460;9.240;2023-05-23T02:09:14;19.40;99.90
22852;DHT22;11592;45.460;9.240;2023-05-23T02:11:42;19.30;99.90
22852;DHT22;11592;45.460;9.240;2023-05-23T02:14:09;19.30;99.90
22852;DHT22;11592;45.460;9.240;2023-05-23T02:16:36;19.20;99.90
22852;DHT22;11592;45.460;9.240;2023-05-23T02:19:03;19.20;99.90
22852;DHT22;11592;45.460;9.240;2023-05-23T02:21:30;19.10;99.90
22852;DHT22;11592;45.460;9.240;2023-05-23T02:24:00;19.10;99.90
22852;DHT22;11592;45.460;9.240;2023-05-23T02:26:27;19.10;99.90
22852;DHT22;11592;45.460;9.240;2023-05-23T02:28:54;19.10;99.90
22852;DHT22;11592;45.460;9.240;2023-05-23T02:31:21;19.10;99.90
22852;DHT22;11592;45.460;9.240;2023-05-23T02:33:48;19.10;99.90
22852;DHT22;11592;45.460;9.240;2023-05-23T02:36:14;19.00;99.90
22852;DHT22;11592;45.460;9.240;2023-05-23T02:38:41;19.00;99.90
22852;DHT22;11592;45.460;9.240;2023-05-23T02:41:08;19.00;99.90
22852;DHT22;11592;45.460;9.240;2023-05-23T02:43:35;19.00;99.90
22852;DHT22;11592;45.460;9.240;2023-05-23T02:46:02;18.90;99.90
22852;DHT22;11592;45.460;9.240;2023-05-23T02:48:29;18.90;99.90
22852;DHT22;11592;45.460;9.240;2023-05-23T02:50:55;18.80;99.90
22852;DHT22;11592;45.460;9.240;2023-05-23T02:53:22;18.80;99.90
22852;DHT22;11592;45.460;9.240;2023-05-23T02:55:49;18.70;99.90
22852;DHT22;11592;45.460;9.240;2023-05-23T02:58:16;18.70;99.90
22852;DHT22;11592;45.460;9.240;2023-05-23T03:00:43;18.60;99.90
22852;DHT22;11592;45.460;9.240;2023-05-23T03:03:10;18.60;99.90
22852;DHT22;11592;45.460;9.240;2023-05-23T03:05:38;18.60;99.90
22852;DHT22;11592;45.460;9.240;2023-05-23T03:08:05;18.60;99.90
22852;DHT22;11592;45.460;9.240;2023-05-23T03:10:32;18.60;99.90
22852;DHT22;11592;45.460;9.240;2023-05-23T03:12:59;18.70;99.90
22852;DHT22;11592;45.460;9.240;2023-05-23T03:15:26;18.70;99.90
22852;DHT22;11592;45.460;9.240;2023-05-23T03:17:52;18.60;99.90
22852;DHT22;11592;45.460;9.240;2023-05-23T03:20:19;18.50;99.90
22852;DHT22;11592;45.460;9.240;2023-05-23T03:22:46;18.40;99.90
22852;DHT22;11592;45.460;9.240;2023-05-23T03:25:16;18.30;99.90
22852;DHT22;11592;45.460;9.240;2023-05-23T03:27:43;18.30;99.90
22852;DHT22;11592;45.460;9.240;2023-05-23T03:30:10;18.40;99.90
22852;DHT22;11592;45.460;9.240;2023-05-23T03:32:37;18.40;99.90
22852;DHT22;11592;45.460;9.240;2023-05-23T03:35:04;18.30;99.90
22852;DHT22;11592;45.460;9.240;2023-05-23T03:37:31;18.30;99.90
22852;DHT22;11592;45.460;9.240;2023-05-23T03:39:58;18.20;99.90
22852;DHT22;11592;45.460;9.240;2023-05-23T03:42:24;18.30;99.90
22852;DHT22;11592;45.460;9.240;2023-05-23T03:44:52;18.30;99.90
22852;DHT22;11592;45.460;9.240;2023-05-23T03:47:19;18.30;99.90
22852;DHT22;11592;45.460;9.240;2023-05-23T03:49:45;18.30;99.90
22852;DHT22;11592;45.460;9.240;2023-05-23T03:52:12;18.30;99.90
22852;DHT22;11592;45.460;9.240;2023-05-23T03:54:39;18.30;99.90
22852;DHT22;11592;45.460;9.240;2023-05-23T03:57:06;18.10;99.90
22852;DHT22;11592;45.460;9.240;2023-05-23T03:59:33;18.10;99.90
22852;DHT22;11592;45.460;9.240;2023-05-23T04:02:00;18.20;99.90
22852;DHT22;11592;45.460;9.240;2023-05-23T04:04:28;18.20;99.90
22852;DHT22;11592;45.460;9.240;2023-05-23T04:06:55;18.30;99.90
22852;DHT22;11592;45.460;9.240;2023-05-23T04:09:23;18.20;99.90
22852;DHT22;11592;45.460;9.240;2023-05-23T04:11:50;18.20;99.90
22852;DHT22;11592;45.460;9.240;2023-05-23T04:14:17;18.30;99.90
22852;DHT22;11592;45.460;9.240;2023-05-23T04:16:47;18.40;99.90
22852;DHT22;11592;45.460;9.240;2023-05-23T04:19:14;18.30;99.90
22852;DHT22;11592;45.460;9.240;2023-05-23T04:21:41;18.30;99.90
22852;DHT22;11592;45.460;9.240;2023-05-23T04:24:08;18.30;99.90
22852;DHT22;11592;45.460;9.240;2023-05-23T04:26:35;18.40;99.90
22852;DHT22;11592;45.460;9.240;2023-05-23T04:29:05;18.40;99.90
22852;DHT22;11592;45.460;9.240;2023-05-23T04:31:32;18.50;99.90
22852;DHT22;11592;45.460;9.240;2023-05-23T04:33:59;18.50;99.90
22852;DHT22;11592;45.460;9.240;2023-05-23T04:36:28;18.50;99.90
22852;DHT22;11592;45.460;9.240;2023-05-23T04:38:55;18.50;99.90
22852;DHT22;11592;45.460;9.240;2023-05-23T04:41:22;18.50;99.90
22852;DHT22;11592;45.460;9.240;2023-05-23T04:43:50;18.60;99.90
22852;DHT22;11592;45.460;9.240;2023-05-23T04:46:20;18.50;99.90
22852;DHT22;11592;45.460;9.240;2023-05-23T04:48:53;18.50;99.90
22852;DHT22;11592;45.460;9.240;2023-05-23T04:51:20;18.60;99.90
22852;DHT22;11592;45.460;9.240;2023-05-23T04:53:48;18.80;99.90
22852;DHT22;11592;45.460;9.240;2023-05-23T04:56:16;18.80;99.90
22852;DHT22;11592;45.460;9.240;2023-05-23T04:58:46;18.70;99.90
22852;DHT22;11592;45.460;9.240;2023-05-23T05:01:13;18.80;99.90
22852;DHT22;11592;45.460;9.240;2023-05-23T05:03:40;18.90;99.90
22852;DHT22;11592;45.460;9.240;2023-05-23T05:06:07;19.00;99.90
22852;DHT22;11592;45.460;9.240;2023-05-23T05:08:34;18.90;99.90
22852;DHT22;11592;45.460;9.240;2023-05-23T05:11:01;19.00;99.90
22852;DHT22;11592;45.460;9.240;2023-05-23T05:13:28;19.00;99.90
22852;DHT22;11592;45.460;9.240;2023-05-23T05:15:55;19.10;99.90
22852;DHT22;11592;45.460;9.240;2023-05-23T05:18:22;19.20;99.90
22852;DHT22;11592;45.460;9.240;2023-05-23T05:20:49;19.20;99.90
22852;DHT22;11592;45.460;9.240;2023-05-23T05:23:16;19.30;99.90
22852;DHT22;11592;45.460;9.240;2023-05-23T05:25:43;19.40;99.90
22852;DHT22;11592;45.460;9.240;2023-05-23T05:28:10;19.40;99.90
22852;DHT22;11592;45.460;9.240;2023-05-23T05:30:36;19.30;99.90
22852;DHT22;11592;45.460;9.240;2023-05-23T05:33:04;19.20;99.90
22852;DHT22;11592;45.460;9.240;2023-05-23T05:35:33;19.40;99.90
22852;DHT22;11592;45.460;9.240;2023-05-23T05:38:00;19.30;99.90
22852;DHT22;11592;45.460;9.240;2023-05-23T05:40:33;19.30;99.90
22852;DHT22;11592;45.460;9.240;2023-05-23T05:43:00;19.10;99.90
22852;DHT22;11592;45.460;9.240;2023-05-23T05:45:27;19.10;99.90
22852;DHT22;11592;45.460;9.240;2023-05-23T05:47:54;19.10;99.90
22852;DHT22;11592;45.460;9.240;2023-05-23T05:50:21;19.30;99.90
22852;DHT22;11592;45.460;9.240;2023-05-23T05:52:47;19.50;99.90
22852;DHT22;11592;45.460;9.240;2023-05-23T05:55:14;19.70;99.90
22852;DHT22;11592;45.460;9.240;2023-05-23T05:57:41;19.70;99.90
22852;DHT22;11592;45.460;9.240;2023-05-23T06:00:10;19.90;99.90
22852;DHT22;11592;45.460;9.240;2023-05-23T06:02:40;20.10;99.90
22852;DHT22;11592;45.460;9.240;2023-05-23T06:05:13;20.30;99.90
22852;DHT22;11592;45.460;9.240;2023-05-23T06:07:42;20.40;99.90
22852;DHT22;11592;45.460;9.240;2023-05-23T06:10:09;20.60;99.90
22852;DHT22;11592;45.460;9.240;2023-05-23T06:12:39;20.70;99.90
22852;DHT22;11592;45.460;9.240;2023-05-23T06:15:07;20.80;99.90
22852;DHT22;11592;45.460;9.240;2023-05-23T06:17:34;20.90;99.90
22852;DHT22;11592;45.460;9.240;2023-05-23T06:20:01;21.00;99.90
22852;DHT22;11592;45.460;9.240;2023-05-23T06:22:29;21.10;99.90
22852;DHT22;11592;45.460;9.240;2023-05-23T06:24:56;21.10;99.90
22852;DHT22;11592;45.460;9.240;2023-05-23T06:27:23;21.20;99.90
22852;DHT22;11592;45.460;9.240;2023-05-23T06:29:51;21.20;99.90
22852;DHT22;11592;45.460;9.240;2023-05-23T06:32:18;21.20;99.90
22852;DHT22;11592;45.460;9.240;2023-05-23T06:34:44;21.30;99.90
22852;DHT22;11592;45.460;9.240;2023-05-23T06:37:11;21.40;99.90
22852;DHT22;11592;45.460;9.240;2023-05-23T06:39:38;21.40;99.90
22852;DHT22;11592;45.460;9.240;2023-05-23T06:42:05;21.60;99.90
22852;DHT22;11592;45.460;9.240;2023-05-23T06:44:32;21.70;99.90
22852;DHT22;11592;45.460;9.240;2023-05-23T06:46:59;21.70;99.90
22852;DHT22;11592;45.460;9.240;2023-05-23T06:49:26;21.60;99.90
22852;DHT22;11592;45.460;9.240;2023-05-23T06:51:53;21.50;99.90
22852;DHT22;11592;45.460;9.240;2023-05-23T06:54:20;21.40;99.90
22852;DHT22;11592;45.460;9.240;2023-05-23T06:56:47;21.50;99.90
22852;DHT22;11592;45.460;9.240;2023-05-23T06:59:13;21.70;99.90
22852;DHT22;11592;45.460;9.240;2023-05-23T07:01:40;21.90;99.90
22852;DHT22;11592;45.460;9.240;2023-05-23T07:04:07;22.00;99.90
22852;DHT22;11592;45.460;9.240;2023-05-23T07:06:34;22.00;99.90
22852;DHT22;11592;45.460;9.240;2023-05-23T07:09:02;22.00;99.90
22852;DHT22;11592;45.460;9.240;2023-05-23T07:11:29;22.10;99.90
22852;DHT22;11592;45.460;9.240;2023-05-23T07:13:57;22.30;99.90
22852;DHT22;11592;45.460;9.240;2023-05-23T07:16:24;22.40;99.90
22852;DHT22;11592;45.460;9.240;2023-05-23T07:18:51;22.50;99.90
22852;DHT22;11592;45.460;9.240;2023-05-23T07:21:18;22.60;99.90
22852;DHT22;11592;45.460;9.240;2023-05-23T07:23:45;22.70;99.90
22852;DHT22;11592;45.460;9.240;2023-05-23T07:26:11;22.80;99.90
22852;DHT22;11592;45.460;9.240;2023-05-23T07:28:38;22.80;99.90
22852;DHT22;11592;45.460;9.240;2023-05-23T07:31:05;22.90;99.90
22852;DHT22;11592;45.460;9.240;2023-05-23T07:33:33;22.90;99.90
22852;DHT22;11592;45.460;9.240;2023-05-23T07:36:00;22.90;99.90
22852;DHT22;11592;45.460;9.240;2023-05-23T07:38:27;22.90;99.90
22852;DHT22;11592;45.460;9.240;2023-05-23T07:40:54;23.00;99.90
22852;DHT22;11592;45.460;9.240;2023-05-23T07:43:37;23.10;99.90
22852;DHT22;11592;45.460;9.240;2023-05-23T07:46:04;23.10;99.90
22852;DHT22;11592;45.460;9.240;2023-05-23T07:48:30;23.20;99.90
22852;DHT22;11592;45.460;9.240;2023-05-23T07:50:58;23.20;99.90
22852;DHT22;11592;45.460;9.240;2023-05-23T07:53:24;23.30;99.90
22852;DHT22;11592;45.460;9.240;2023-05-23T07:55:52;23.30;99.90
22852;DHT22;11592;45.460;9.240;2023-05-23T07:58:18;23.40;99.90
22852;DHT22;11592;45.460;9.240;2023-05-23T08:00:45;23.40;99.90
22852;DHT22;11592;45.460;9.240;2023-05-23T08:03:12;23.30;99.90
22852;DHT22;11592;45.460;9.240;2023-05-23T08:05:39;23.10;99.90
22852;DHT22;11592;45.460;9.240;2023-05-23T08:08:06;22.90;99.90
22852;DHT22;11592;45.460;9.240;2023-05-23T08:10:33;23.10;99.90
22852;DHT22;11592;45.460;9.240;2023-05-23T08:12:59;23.20;99.90
22852;DHT22;11592;45.460;9.240;2023-05-23T08:15:30;23.40;99.90
22852;DHT22;11592;45.460;9.240;2023-05-23T08:17:56;23.50;99.90
22852;DHT22;11592;45.460;9.240;2023-05-23T08:20:24;23.50;99.90
22852;DHT22;11592;45.460;9.240;2023-05-23T08:23:00;23.40;99.90
22852;DHT22;11592;45.460;9.240;2023-05-23T08:25:27;23.40;99.90
22852;DHT22;11592;45.460;9.240;2023-05-23T08:27:58;23.70;99.90
22852;DHT22;11592;45.460;9.240;2023-05-23T08:30:26;23.80;99.90
22852;DHT22;11592;45.460;9.240;2023-05-23T08:32:55;23.80;99.90
22852;DHT22;11592;45.460;9.240;2023-05-23T08:35:22;23.90;99.90
22852;DHT22;11592;45.460;9.240;2023-05-23T08:37:49;23.90;99.90
22852;DHT22;11592;45.460;9.240;2023-05-23T08:40:20;23.90;99.90
22852;DHT22;11592;45.460;9.240;2023-05-23T08:42:49;24.10;99.90
22852;DHT22;11592;45.460;9.240;2023-05-23T08:45:17;24.30;99.90
22852;DHT22;11592;45.460;9.240;2023-05-23T08:47:45;24.40;99.90
22852;DHT22;11592;45.460;9.240;2023-05-23T08:50:15;24.40;99.90
22852;DHT22;11592;45.460;9.240;2023-05-23T08:52:54;24.40;99.90
22852;DHT22;11592;45.460;9.240;2023-05-23T08:55:28;24.20;99.90
22852;DHT22;11592;45.460;9.240;2023-05-23T08:57:59;24.40;99.90
22852;DHT22;11592;45.460;9.240;2023-05-23T09:00:27;24.60;99.90
22852;DHT22;11592;45.460;9.240;2023-05-23T09:02:54;24.80;99.90
22852;DHT22;11592;45.460;9.240;2023-05-23T09:05:21;24.90;99.90
22852;DHT22;11592;45.460;9.240;2023-05-23T09:07:48;24.90;99.90
22852;DHT22;11592;45.460;9.240;2023-05-23T09:10:16;24.90;99.90
22852;DHT22;11592;45.460;9.240;2023-05-23T09:12:45;25.00;99.90
22852;DHT22;11592;45.460;9.240;2023-05-23T09:15:13;25.10;99.90
22852;DHT22;11592;45.460;9.240;2023-05-23T09:17:40;25.30;99.90
22852;DHT22;11592;45.460;9.240;2023-05-23T09:20:15;25.30;99.90
22852;DHT22;11592;45.460;9.240;2023-05-23T09:22:46;25.40;99.90
22852;DHT22;11592;45.460;9.240;2023-05-23T09:25:14;25.40;99.90
22852;DHT22;11592;45.460;9.240;2023-05-23T09:27:41;25.40;99.90
22852;DHT22;11592;45.460;9.240;2023-05-23T09:30:13;25.40;99.90
22852;DHT22;11592;45.460;9.240;2023-05-23T09:32:40;25.60;99.90
22852;DHT22;11592;45.460;9.240;2023-05-23T09:35:08;25.40;99.90
22852;DHT22;11592;45.460;9.240;2023-05-23T09:37:44;25.40;99.90
22852;DHT22;11592;45.460;9.240;2023-05-23T09:40:13;25.60;99.90
22852;DHT22;11592;45.460;9.240;2023-05-23T09:42:42;25.70;99.90
22852;DHT22;11592;45.460;9.240;2023-05-23T09:45:10;25.60;99.90
22852;DHT22;11592;45.460;9.240;2023-05-23T09:47:37;25.70;99.90
22852;DHT22;11592;45.460;9.240;2023-05-23T09:50:05;25.80;99.90
22852;DHT22;11592;45.460;9.240;2023-05-23T09:52:36;25.80;99.90
22852;DHT22;11592;45.460;9.240;2023-05-23T09:55:04;26.00;99.90
22852;DHT22;11592;45.460;9.240;2023-05-23T09:57:39;25.90;99.90
22852;DHT22;11592;45.460;9.240;2023-05-23T10:00:07;26.00;99.90
22852;DHT22;11592;45.460;9.240;2023-05-23T10:02:57;26.20;99.90
22852;DHT22;11592;45.460;9.240;2023-05-23T10:05:45;26.40;99.90
22852;DHT22;11592;45.460;9.240;2023-05-23T10:08:37;26.40;99.90
22852;DHT22;11592;45.460;9.240;2023-05-23T10:13:47;26.60;99.90
22852;DHT22;11592;45.460;9.240;2023-05-23T10:18:48;26.60;99.90
22852;DHT22;11592;45.460;9.240;2023-05-23T10:21:28;26.90;99.90
22852;DHT22;11592;45.460;9.240;2023-05-23T10:23:59;27.00;99.90
22852;DHT22;11592;45.460;9.240;2023-05-23T10:26:27;26.80;99.90
22852;DHT22;11592;45.460;9.240;2023-05-23T10:28:54;26.50;99.90
22852;DHT22;11592;45.460;9.240;2023-05-23T10:31:23;26.60;99.90
22852;DHT22;11592;45.460;9.240;2023-05-23T10:33:57;26.80;99.90
22852;DHT22;11592;45.460;9.240;2023-05-23T10:36:38;27.00;99.90
22852;DHT22;11592;45.460;9.240;2023-05-23T10:39:29;27.20;99.90
22852;DHT22;11592;45.460;9.240;2023-05-23T10:42:02;27.20;99.90
22852;DHT22;11592;45.460;9.240;2023-05-23T10:44:30;27.10;99.90
22852;DHT22;11592;45.460;9.240;2023-05-23T10:46:59;27.10;99.90
22852;DHT22;11592;45.460;9.240;2023-05-23T10:49:43;26.90;99.90
22852;DHT22;11592;45.460;9.240;2023-05-23T10:52:13;27.10;99.90
22852;DHT22;11592;45.460;9.240;2023-05-23T10:54:48;27.30;99.90
22852;DHT22;11592;45.460;9.240;2023-05-23T10:57:20;27.50;99.90
22852;DHT22;11592;45.460;9.240;2023-05-23T10:59:50;27.40;99.90
22852;DHT22;11592;45.460;9.240;2023-05-23T11:02:24;27.60;99.90
22852;DHT22;11592;45.460;9.240;2023-05-23T11:05:20;27.90;99.90
22852;DHT22;11592;45.460;9.240;2023-05-23T11:08:07;28.30;99.90
22852;DHT22;11592;45.460;9.240;2023-05-23T11:11:00;28.20;99.90
22852;DHT22;11592;45.460;9.240;2023-05-23T11:18:51;28.30;99.90
22852;DHT22;11592;45.460;9.240;2023-05-23T11:21:19;28.10;99.90
22852;DHT22;11592;45.460;9.240;2023-05-23T11:23:53;28.40;99.90
22852;DHT22;11592;45.460;9.240;2023-05-23T11:26:31;28.50;99.90
22852;DHT22;11592;45.460;9.240;2023-05-23T11:28:58;28.70;99.90
22852;DHT22;11592;45.460;9.240;2023-05-23T11:31:25;28.80;99.90
22852;DHT22;11592;45.460;9.240;2023-05-23T11:33:53;28.90;99.90
22852;DHT22;11592;45.460;9.240;2023-05-23T11:36:23;28.70;99.90
22852;DHT22;11592;45.460;9.240;2023-05-23T11:38:51;28.80;99.90
22852;DHT22;11592;45.460;9.240;2023-05-23T11:41:18;28.60;99.90
22852;DHT22;11592;45.460;9.240;2023-05-23T11:43:51;28.90;99.90
22852;DHT22;11592;45.460;9.240;2023-05-23T11:46:18;29.20;99.90
22852;DHT22;11592;45.460;9.240;2023-05-23T11:48:46;29.50;99.90
22852;DHT22;11592;45.460;9.240;2023-05-23T11:51:16;29.60;99.90
22852;DHT22;11592;45.460;9.240;2023-05-23T11:53:43;29.80;99.90
22852;DHT22;11592;45.460;9.240;2023-05-23T11:56:10;29.70;99.90
22852;DHT22;11592;45.460;9.240;2023-05-23T11:58:38;29.90;99.60
22852;DHT22;11592;45.460;9.240;2023-05-23T12:01:09;30.10;99.90
22852;DHT22;11592;45.460;9.240;2023-05-23T12:03:47;30.30;98.70
22852;DHT22;11592;45.460;9.240;2023-05-23T12:06:15;30.30;99.70
22852;DHT22;11592;45.460;9.240;2023-05-23T12:08:45;30.40;98.00
22852;DHT22;11592;45.460;9.240;2023-05-23T12:11:12;30.50;97.10
22852;DHT22;11592;45.460;9.240;2023-05-23T12:13:41;30.80;97.30
22852;DHT22;11592;45.460;9.240;2023-05-23T12:16:08;31.10;96.50
22852;DHT22;11592;45.460;9.240;2023-05-23T12:18:36;31.20;95.90
22852;DHT22;11592;45.460;9.240;2023-05-23T12:21:05;31.30;95.70
22852;DHT22;11592;45.460;9.240;2023-05-23T12:23:34;31.30;97.80
22852;DHT22;11592;45.460;9.240;2023-05-23T12:26:05;31.50;99.00
22852;DHT22;11592;45.460;9.240;2023-05-23T12:33:43;31.80;97.80
22852;DHT22;11592;45.460;9.240;2023-05-23T12:36:21;32.30;95.80
22852;DHT22;11592;45.460;9.240;2023-05-23T12:38:48;32.10;92.90
22852;DHT22;11592;45.460;9.240;2023-05-23T12:41:17;31.70;92.50
22852;DHT22;11592;45.460;9.240;2023-05-23T12:43:55;31.60;94.30
22852;DHT22;11592;45.460;9.240;2023-05-23T12:46:23;31.50;95.00
22852;DHT22;11592;45.460;9.240;2023-05-23T12:48:51;31.60;94.30
22852;DHT22;11592;45.460;9.240;2023-05-23T12:51:19;31.80;94.40
22852;DHT22;11592;45.460;9.240;2023-05-23T12:53:47;31.80;93.90
22852;DHT22;11592;45.460;9.240;2023-05-23T12:56:14;31.90;93.60
22852;DHT22;11592;45.460;9.240;2023-05-23T12:58:41;32.10;93.10
22852;DHT22;11592;45.460;9.240;2023-05-23T13:01:07;32.20;93.20
22852;DHT22;11592;45.460;9.240;2023-05-23T13:03:34;32.40;93.90
22852;DHT22;11592;45.460;9.240;2023-05-23T13:06:02;32.70;92.40
22852;DHT22;11592;45.460;9.240;2023-05-23T13:08:29;32.60;92.50
22852;DHT22;11592;45.460;9.240;2023-05-23T13:10:56;32.70;92.50
22852;DHT22;11592;45.460;9.240;2023-05-23T13:13:23;32.90;91.70
22852;DHT22;11592;45.460;9.240;2023-05-23T13:15:50;32.80;91.50
22852;DHT22;11592;45.460;9.240;2023-05-23T13:18:17;32.70;91.40
22852;DHT22;11592;45.460;9.240;2023-05-23T13:20:44;33.00;91.40
22852;DHT22;11592;45.460;9.240;2023-05-23T13:23:12;32.90;87.80
22852;DHT22;11592;45.460;9.240;2023-05-23T13:25:39;32.70;88.80
22852;DHT22;11592;45.460;9.240;2023-05-23T13:28:06;32.80;87.40
22852;DHT22;11592;45.460;9.240;2023-05-23T13:30:33;33.00;89.50
22852;DHT22;11592;45.460;9.240;2023-05-23T13:33:00;33.40;89.50
22852;DHT22;11592;45.460;9.240;2023-05-23T13:35:27;33.70;88.50
22852;DHT22;11592;45.460;9.240;2023-05-23T13:37:54;33.60;86.60
22852;DHT22;11592;45.460;9.240;2023-05-23T13:40:21;33.60;87.80
22852;DHT22;11592;45.460;9.240;2023-05-23T13:42:49;33.70;85.80
22852;DHT22;11592;45.460;9.240;2023-05-23T13:45:18;33.80;89.10
22852;DHT22;11592;45.460;9.240;2023-05-23T13:47:45;33.90;86.70
22852;DHT22;11592;45.460;9.240;2023-05-23T13:50:12;34.20;85.30
22852;DHT22;11592;45.460;9.240;2023-05-23T13:52:39;34.30;87.60
22852;DHT22;11592;45.460;9.240;2023-05-23T13:55:11;34.70;83.80
22852;DHT22;11592;45.460;9.240;2023-05-23T13:57:38;35.20;82.70
22852;DHT22;11592;45.460;9.240;2023-05-23T14:00:05;35.60;82.10
22852;DHT22;11592;45.460;9.240;2023-05-23T14:02:34;36.10;78.90
22852;DHT22;11592;45.460;9.240;2023-05-23T14:05:01;35.90;76.20
22852;DHT22;11592;45.460;9.240;2023-05-23T14:07:29;35.90;77.50
22852;DHT22;11592;45.460;9.240;2023-05-23T14:09:56;36.00;75.70
22852;DHT22;11592;45.460;9.240;2023-05-23T14:12:23;36.00;74.50
22852;DHT22;11592;45.460;9.240;2023-05-23T14:14:51;36.50;81.20
22852;DHT22;11592;45.460;9.240;2023-05-23T14:17:18;36.90;76.30
22852;DHT22;11592;45.460;9.240;2023-05-23T14:19:45;36.90;72.30
22852;DHT22;11592;45.460;9.240;2023-05-23T14:22:13;36.20;71.20
22852;DHT22;11592;45.460;9.240;2023-05-23T14:24:39;36.10;72.20
22852;DHT22;11592;45.460;9.240;2023-05-23T14:27:06;36.10;72.00
22852;DHT22;11592;45.460;9.240;2023-05-23T14:29:36;36.10;75.00
22852;DHT22;11592;45.460;9.240;2023-05-23T14:32:03;35.50;71.00
22852;DHT22;11592;45.460;9.240;2023-05-23T14:34:30;34.30;73.00
22852;DHT22;11592;45.460;9.240;2023-05-23T14:36:57;33.00;74.00
22852;DHT22;11592;45.460;9.240;2023-05-23T14:39:24;32.30;76.00
22852;DHT22;11592;45.460;9.240;2023-05-23T14:41:51;32.20;78.70
22852;DHT22;11592;45.460;9.240;2023-05-23T14:44:18;32.30;77.00
22852;DHT22;11592;45.460;9.240;2023-05-23T14:46:45;32.50;76.80
22852;DHT22;11592;45.460;9.240;2023-05-23T14:49:16;32.60;77.70
22852;DHT22;11592;45.460;9.240;2023-05-23T14:51:44;32.70;76.10
22852;DHT22;11592;45.460;9.240;2023-05-23T14:54:17;32.60;76.70
22852;DHT22;11592;45.460;9.240;2023-05-23T14:56:43;32.40;76.20
22852;DHT22;11592;45.460;9.240;2023-05-23T14:59:11;32.30;76.80
22852;DHT22;11592;45.460;9.240;2023-05-23T15:01:38;32.40;81.20
22852;DHT22;11592;45.460;9.240;2023-05-23T15:04:07;32.30;78.10
22852;DHT22;11592;45.460;9.240;2023-05-23T15:06:35;31.90;76.00
22852;DHT22;11592;45.460;9.240;2023-05-23T15:09:04;31.50;77.90
22852;DHT22;11592;45.460;9.240;2023-05-23T15:11:30;31.40;79.10
22852;DHT22;11592;45.460;9.240;2023-05-23T15:13:57;31.30;79.30
22852;DHT22;11592;45.460;9.240;2023-05-23T15:16:25;31.30;78.90
22852;DHT22;11592;45.460;9.240;2023-05-23T15:18:52;31.30;80.30
22852;DHT22;11592;45.460;9.240;2023-05-23T15:21:19;31.30;83.00
22852;DHT22;11592;45.460;9.240;2023-05-23T15:23:46;31.40;80.20
22852;DHT22;11592;45.460;9.240;2023-05-23T15:26:13;31.50;80.00
22852;DHT22;11592;45.460;9.240;2023-05-23T15:28:40;31.60;81.40
22852;DHT22;11592;45.460;9.240;2023-05-23T15:31:06;31.70;80.40
22852;DHT22;11592;45.460;9.240;2023-05-23T15:33:33;31.60;77.80
22852;DHT22;11592;45.460;9.240;2023-05-23T15:36:00;31.70;80.00
22852;DHT22;11592;45.460;9.240;2023-05-23T15:38:27;31.90;80.20
22852;DHT22;11592;45.460;9.240;2023-05-23T15:40:54;31.80;77.70
22852;DHT22;11592;45.460;9.240;2023-05-23T15:43:22;31.60;79.00
22852;DHT22;11592;45.460;9.240;2023-05-23T15:45:50;31.50;77.90
22852;DHT22;11592;45.460;9.240;2023-05-23T15:48:18;31.40;78.00
22852;DHT22;11592;45.460;9.240;2023-05-23T15:50:45;31.10;78.10
22852;DHT22;11592;45.460;9.240;2023-05-23T15:53:11;31.10;78.40
22852;DHT22;11592;45.460;9.240;2023-05-23T15:55:38;31.30;79.50
22852;DHT22;11592;45.460;9.240;2023-05-23T15:58:09;31.50;80.10
22852;DHT22;11592;45.460;9.240;2023-05-23T16:00:36;31.60;77.80